Time;durP1;ratioP1;P1;durP2;ratioP2;P2;SDS_P1;SDS_P2;PMS_P1;PMS_P2;Temp;Humidity;BMP_temperature;BMP_pressure;BME280_temperature;BME280_humidity;BME280_pressure;Samples;Min_cycle;Max_cycle;Signal;HPM_P1;HPM_P2
2024/01/03 00:05:17;;;;;;;;;31.00;26.00;;;;;;;;6489239;46;8952;-59
2024/01/03 00:11:20;;;;;;;;;31.25;26.00;;;;;;;;6490969;39;8870;-59
2024/01/03 00:17:23;;;;;;;;;24.00;23.00;;;;;;;;6489828;46;8916;-59
2024/01/03 00:23:32;;;;;;;;;15.50;12.25;;;;;;;;6489448;39;9442;-60
2024/01/03 00:29:38;;;;;;;;;23.50;22.25;;;;;;;;6490813;39;8946;-59
2024/01/03 00:35:40;;;;;;;;;25.25;19.00;;;;;;;;6489493;39;8838;-59
2024/01/03 00:41:43;;;;;;;;;16.75;15.25;;;;;;;;6490075;31;8876;-58
2024/01/03 00:47:45;;;;;;;;;19.50;15.50;;;;;;;;6490464;39;8890;-59
2024/01/03 00:53:50;;;;;;;;;15.25;15.25;;;;;;;;6489133;46;8996;-59
2024/01/03 00:59:52;;;;;;;;;24.67;18.00;;;;;;;;6488884;39;9690;-60
2024/01/03 01:05:55;;;;;;;;;15.50;15.00;;;;;;;;6490005;39;9071;-59
2024/01/03 01:11:58;;;;;;;;;22.25;20.50;;;;;;;;6489414;39;8958;-59
2024/01/03 01:18:04;;;;;;;;;15.00;15.00;;;;;;;;6489381;46;8861;-58
2024/01/03 01:24:07;;;;;;;;;18.50;15.50;;;;;;;;6489719;47;8862;-60
2024/01/03 01:30:09;;;;;;;;;20.00;18.75;;;;;;;;6489653;39;8861;-58
2024/01/03 01:36:15;;;;;;;;;17.25;16.00;;;;;;;;6489862;39;8912;-60
2024/01/03 01:42:17;;;;;;;;;19.75;19.75;;;;;;;;6489734;39;9607;-59
2024/01/03 01:48:22;;;;;;;;;23.25;19.50;;;;;;;;6488542;39;8917;-58
2024/01/03 01:54:29;;;;;;;;;19.00;18.50;;;;;;;;6489327;39;8920;-58
2024/01/03 02:00:32;;;;;;;;;22.25;21.25;;;;;;;;6490065;31;8898;-59
2024/01/03 02:06:37;;;;;;;;;20.75;17.00;;;;;;;;6489219;39;9042;-59
2024/01/03 02:12:39;;;;;;;;;21.00;19.25;;;;;;;;6490462;31;9674;-58
2024/01/03 02:18:43;;;;;;;;;23.75;21.50;;;;;;;;6490966;39;8900;-61
2024/01/03 02:24:48;;;;;;;;;22.00;18.75;;;;;;;;6491488;39;8902;-59
2024/01/03 02:30:50;;;;;;;;;20.25;17.25;;;;;;;;6490767;46;8927;-59
2024/01/03 02:36:56;;;;;;;;;14.50;12.00;;;;;;;;6491540;39;8893;-58
2024/01/03 02:42:59;;;;;;;;;18.25;15.00;;;;;;;;6490757;46;8936;-59
2024/01/03 02:49:03;;;;;;;;;22.75;20.50;;;;;;;;6491459;39;8937;-59
2024/01/03 02:55:06;;;;;;;;;19.00;19.00;;;;;;;;6490031;39;8892;-59
2024/01/03 03:01:09;;;;;;;;;19.25;17.75;;;;;;;;6491039;39;9529;-59
2024/01/03 03:07:13;;;;;;;;;15.75;15.75;;;;;;;;6491796;39;8936;-59
2024/01/03 03:13:16;;;;;;;;;15.75;14.00;;;;;;;;6490800;39;9022;-58
2024/01/03 03:19:19;;;;;;;;;21.50;20.25;;;;;;;;6490750;39;9628;-58
2024/01/03 03:25:23;;;;;;;;;22.75;19.75;;;;;;;;6490108;46;8851;-59
2024/01/03 03:31:25;;;;;;;;;22.00;19.75;;;;;;;;6490849;39;8884;-58
2024/01/03 03:37:29;;;;;;;;;27.75;23.25;;;;;;;;6490710;46;8978;-59
2024/01/03 03:43:34;;;;;;;;;25.25;24.50;;;;;;;;6491163;39;8905;-58
2024/01/03 03:49:37;;;;;;;;;27.00;24.00;;;;;;;;6489983;31;9581;-57
2024/01/03 03:55:41;;;;;;;;;33.00;26.50;;;;;;;;6490518;46;8940;-59
2024/01/03 04:01:50;;;;;;;;;36.75;30.50;;;;;;;;6489873;46;8969;-58
2024/01/03 04:07:55;;;;;;;;;31.00;29.00;;;;;;;;6490380;46;8978;-58
2024/01/03 04:13:59;;;;;;;;;39.00;27.75;;;;;;;;6490329;31;8878;-59
2024/01/03 04:20:01;;;;;;;;;33.75;30.25;;;;;;;;6490332;39;8963;-58
2024/01/03 04:26:04;;;;;;;;;34.25;28.25;;;;;;;;6490012;46;8962;-59
2024/01/03 04:32:07;;;;;;;;;30.25;23.50;;;;;;;;6490307;39;8999;-59
2024/01/03 04:38:09;;;;;;;;;32.50;28.50;;;;;;;;6489611;31;8941;-59
2024/01/03 04:44:12;;;;;;;;;26.50;25.75;;;;;;;;6488977;39;8911;-58
2024/01/03 04:50:15;;;;;;;;;33.00;28.25;;;;;;;;6490120;39;8859;-58
2024/01/03 04:56:18;;;;;;;;;34.75;31.25;;;;;;;;6489995;39;9523;-58
2024/01/03 05:02:20;;;;;;;;;32.50;30.00;;;;;;;;6468144;39;9000;-60
